Terminal Aerodrome Forecast
Issued by NWS

Home | Current Version | Previous Version | Text Only | Print | Product List | Glossary On
Versions: 1 2 3 4 5 6 7 8 9 10 11 12 13 14 15 16 17 18 19 20 21 22 23 24
000
FTAK31 PAFA 112339
TAFATA
TAF
PATA 112339Z 1200/1224 12005KT P6SM VCSH FEW050 BKN090 BKN150
     FM120600 VRB04KT P6SM BKN060 OVC100
     FM121800 22003KT P6SM -SHRA BKN080 OVC100=

USA.gov is the U.S. government's official web portal to all federal, state and local government web resources and services.